Time;durP1;ratioP1;P1;durP2;ratioP2;P2;SDS_P1;SDS_P2;PMS_P1;PMS_P2;Temp;Humidity;BMP_temperature;BMP_pressure;BME280_temperature;BME280_humidity;BME280_pressure;Samples;Min_cycle;Max_cycle;Signal;HPM_P1;HPM_P2
2022/01/01 00:01:36;;;;;;;29.40;18.42;;;11.40;99.90;;;;;;4993180;28;20085;-68
2022/01/01 00:04:05;;;;;;;28.60;18.35;;;11.40;99.90;;;;;;4993290;28;20058;-68
2022/01/01 00:06:32;;;;;;;21.60;11.98;;;11.40;99.90;;;;;;4992384;28;20230;-68
2022/01/01 00:08:59;;;;;;;12.88;7.85;;;11.30;99.90;;;;;;4993374;28;20125;-68
2022/01/01 00:11:27;;;;;;;16.40;8.68;;;11.30;99.90;;;;;;4992937;28;20086;-68
2022/01/01 00:13:54;;;;;;;14.23;7.15;;;11.40;99.90;;;;;;4993308;28;20586;-68
2022/01/01 00:16:21;;;;;;;14.65;6.70;;;11.40;99.90;;;;;;4992749;28;20089;-68
2022/01/01 00:18:48;;;;;;;9.77;5.60;;;11.40;99.90;;;;;;4992997;28;20086;-68
2022/01/01 00:21:15;;;;;;;10.43;5.10;;;11.40;99.90;;;;;;4992543;28;20529;-68
2022/01/01 00:23:42;;;;;;;12.43;5.15;;;11.40;99.90;;;;;;4992938;28;20481;-68
2022/01/01 00:26:09;;;;;;;12.45;5.50;;;11.40;99.90;;;;;;4992781;28;20072;-68
2022/01/01 00:28:37;;;;;;;11.05;5.30;;;11.30;99.90;;;;;;4992937;28;20137;-68
2022/01/01 00:31:05;;;;;;;11.48;5.10;;;11.30;99.90;;;;;;4992594;28;20571;-68
2022/01/01 00:33:32;;;;;;;8.75;4.50;;;11.40;99.90;;;;;;4992900;28;20061;-68
2022/01/01 00:35:59;;;;;;;11.05;6.00;;;11.40;99.90;;;;;;4992339;28;20053;-68
2022/01/01 00:38:26;;;;;;;8.65;4.70;;;11.30;99.90;;;;;;4992745;28;20137;-68
2022/01/01 00:40:53;;;;;;;10.40;5.40;;;11.40;99.90;;;;;;4992314;28;20046;-68
2022/01/01 00:43:20;;;;;;;10.35;5.13;;;11.40;99.90;;;;;;4992684;28;20149;-68
2022/01/01 00:45:48;;;;;;;10.30;5.45;;;11.40;99.90;;;;;;4992186;28;20145;-68
2022/01/01 00:48:15;;;;;;;10.82;4.97;;;11.40;99.90;;;;;;4992352;28;20196;-68
2022/01/01 00:50:42;;;;;;;13.02;4.78;;;11.40;99.90;;;;;;4992504;28;20473;-69
2022/01/01 00:53:09;;;;;;;9.55;5.07;;;11.40;99.90;;;;;;4992064;28;20132;-68
2022/01/01 00:55:36;;;;;;;12.57;5.18;;;11.40;99.90;;;;;;4992294;28;20148;-68
2022/01/01 00:58:03;;;;;;;12.40;5.20;;;11.40;99.90;;;;;;4991691;28;20513;-68
2022/01/01 01:00:30;;;;;;;13.02;5.53;;;11.40;99.90;;;;;;4992288;28;20575;-68
2022/01/01 01:02:58;;;;;;;11.45;5.15;;;11.40;99.90;;;;;;4992183;28;20133;-68
2022/01/01 01:05:25;;;;;;;11.93;5.15;;;11.40;99.90;;;;;;4992200;28;20548;-68
2022/01/01 01:07:52;;;;;;;11.05;5.43;;;11.40;99.90;;;;;;4992174;28;20477;-68
2022/01/01 01:10:19;;;;;;;10.52;5.25;;;11.40;99.90;;;;;;4992266;28;20058;-68
2022/01/01 01:12:48;;;;;;;8.85;5.25;;;11.40;99.90;;;;;;4991955;28;20142;-68
2022/01/01 01:15:18;;;;;;;9.30;5.30;;;11.40;99.90;;;;;;4992141;28;20057;-68
2022/01/01 01:17:46;;;;;;;10.23;5.13;;;11.50;99.90;;;;;;4991829;28;20070;-68
2022/01/01 01:20:15;;;;;;;15.38;5.30;;;11.50;99.90;;;;;;4992133;28;20092;-68
2022/01/01 01:22:42;;;;;;;8.82;4.93;;;11.50;99.90;;;;;;4991761;28;20137;-68
2022/01/01 01:25:11;;;;;;;12.82;6.25;;;11.40;99.90;;;;;;4992054;28;20129;-68
2022/01/01 01:27:38;;;;;;;10.52;5.47;;;11.40;99.90;;;;;;4992502;28;20156;-68
2022/01/01 01:30:08;;;;;;;11.07;5.45;;;11.40;99.90;;;;;;4992163;28;20549;-68
2022/01/01 01:32:35;;;;;;;11.30;5.05;;;11.40;99.90;;;;;;4991799;28;20498;-68
2022/01/01 01:35:02;;;;;;;12.48;6.22;;;11.50;99.90;;;;;;4991807;28;20324;-68
2022/01/01 01:37:30;;;;;;;13.35;5.80;;;11.50;99.90;;;;;;4991672;28;20141;-68
2022/01/01 01:39:58;;;;;;;13.25;5.78;;;11.40;99.90;;;;;;4992264;28;20074;-68
2022/01/01 01:42:27;;;;;;;14.13;6.40;;;11.40;99.90;;;;;;4991870;28;20140;-68
2022/01/01 01:44:54;;;;;;;12.95;6.70;;;11.40;99.90;;;;;;4991730;28;20498;-68
2022/01/01 01:47:28;;;;;;;10.35;6.10;;;11.50;99.90;;;;;;4991868;28;20073;-68
2022/01/01 01:49:56;;;;;;;9.65;5.10;;;11.50;99.90;;;;;;4992872;28;20066;-68
2022/01/01 01:52:24;;;;;;;13.85;5.93;;;11.60;99.90;;;;;;4993899;28;20062;-68
2022/01/01 01:54:53;;;;;;;11.48;6.18;;;11.60;99.90;;;;;;4992454;28;20055;-68
2022/01/01 01:57:20;;;;;;;10.07;5.70;;;11.60;99.90;;;;;;4993530;28;20565;-69
2022/01/01 01:59:47;;;;;;;12.35;6.18;;;11.60;99.90;;;;;;4992029;28;20061;-69
2022/01/01 02:02:14;;;;;;;13.65;6.50;;;11.60;99.90;;;;;;4991796;28;20157;-68
2022/01/01 02:04:41;;;;;;;12.48;5.85;;;11.50;99.90;;;;;;4991550;28;20125;-68
2022/01/01 02:07:08;;;;;;;12.15;6.10;;;11.60;99.90;;;;;;4991677;28;20082;-68
2022/01/01 02:09:36;;;;;;;12.57;5.75;;;11.60;99.90;;;;;;4994152;28;20142;-68
2022/01/01 02:12:05;;;;;;;14.27;6.10;;;11.50;99.90;;;;;;4995297;28;20137;-68
2022/01/01 02:14:49;;;;;;;10.90;6.05;;;11.50;99.90;;;;;;4995229;28;20101;-68
2022/01/01 02:17:17;;;;;;;11.23;6.43;;;11.50;99.90;;;;;;4995438;28;20046;-68
2022/01/01 02:19:54;;;;;;;10.90;5.70;;;11.60;99.90;;;;;;4994974;28;20057;-68
2022/01/01 02:22:23;;;;;;;11.43;5.50;;;11.50;99.90;;;;;;4995533;28;20054;-68
2022/01/01 02:24:50;;;;;;;10.23;5.13;;;11.50;99.90;;;;;;4995358;28;20495;-68
2022/01/01 02:27:18;;;;;;;9.85;5.65;;;11.60;99.90;;;;;;4996014;28;20141;-68
2022/01/01 02:29:45;;;;;;;12.32;5.90;;;11.50;99.90;;;;;;4994930;28;20053;-68
2022/01/01 02:32:15;;;;;;;11.35;5.25;;;11.50;99.90;;;;;;4994862;28;20050;-68
2022/01/01 02:34:43;;;;;;;11.73;5.43;;;11.50;99.90;;;;;;4995061;28;20137;-68
2022/01/01 02:37:10;;;;;;;12.88;5.53;;;11.50;99.90;;;;;;4994846;28;20133;-68
2022/01/01 02:39:38;;;;;;;13.45;5.30;;;11.50;99.90;;;;;;4994819;28;20073;-68
2022/01/01 02:42:08;;;;;;;10.20;5.13;;;11.50;99.90;;;;;;4994809;28;20141;-68
2022/01/01 02:44:35;;;;;;;13.13;5.80;;;11.50;99.90;;;;;;4994688;28;20125;-68
2022/01/01 02:47:02;;;;;;;14.18;5.85;;;11.40;99.90;;;;;;4994537;28;20407;-68
2022/01/01 02:49:29;;;;;;;11.43;5.53;;;11.40;99.90;;;;;;4994373;28;20133;-68
2022/01/01 02:51:56;;;;;;;11.27;5.85;;;11.50;99.90;;;;;;4994584;28;20137;-68
2022/01/01 02:54:22;;;;;;;11.52;6.10;;;11.40;99.90;;;;;;4994374;28;20141;-68
2022/01/01 02:56:51;;;;;;;11.40;6.28;;;11.40;99.90;;;;;;4994369;28;20139;-68
2022/01/01 02:59:18;;;;;;;11.30;6.07;;;11.30;99.90;;;;;;4994241;28;20093;-68
2022/01/01 03:01:44;;;;;;;12.65;5.82;;;11.40;99.90;;;;;;4994537;28;20237;-68
2022/01/01 03:04:12;;;;;;;10.77;5.25;;;11.40;99.90;;;;;;4994069;28;20577;-68
2022/01/01 03:06:39;;;;;;;10.02;5.60;;;11.40;99.90;;;;;;4994274;28;20054;-68
2022/01/01 03:09:06;;;;;;;11.73;5.57;;;11.40;99.90;;;;;;4994094;28;20129;-68
2022/01/01 03:11:34;;;;;;;10.70;5.40;;;11.40;99.90;;;;;;4994171;28;20054;-68
2022/01/01 03:14:02;;;;;;;11.15;5.53;;;11.40;99.90;;;;;;4993871;28;20138;-68
2022/01/01 03:16:29;;;;;;;11.73;6.13;;;11.30;99.90;;;;;;4993979;28;20054;-68
2022/01/01 03:18:56;;;;;;;13.85;6.22;;;11.30;99.90;;;;;;4993912;28;20046;-68
2022/01/01 03:21:23;;;;;;;10.00;5.88;;;11.30;99.90;;;;;;4993386;28;20125;-68
2022/01/01 03:23:49;;;;;;;14.23;6.20;;;11.30;99.90;;;;;;4994005;28;20054;-68
2022/01/01 03:26:16;;;;;;;13.02;5.55;;;11.30;99.90;;;;;;4993638;28;20133;-68
2022/01/01 03:31:24;;;;;;;9.85;5.28;;;11.20;99.90;;;;;;5008280;23;20074;-69
2022/01/01 03:33:51;;;;;;;15.38;6.15;;;11.20;99.90;;;;;;4994131;28;20144;-70
2022/01/01 03:36:18;;;;;;;11.45;5.25;;;11.20;99.90;;;;;;4993545;28;20145;-69
2022/01/01 03:38:45;;;;;;;10.07;5.20;;;11.20;99.90;;;;;;4993771;28;20467;-69
2022/01/01 03:41:12;;;;;;;12.10;5.40;;;11.20;99.90;;;;;;4998354;28;20484;-69
2022/01/01 03:43:39;;;;;;;11.00;5.60;;;11.20;99.90;;;;;;4983641;28;20142;-71
2022/01/01 03:46:06;;;;;;;11.68;6.10;;;11.20;99.90;;;;;;4991259;28;20141;-71
2022/01/01 03:48:34;;;;;;;14.90;6.05;;;11.10;99.90;;;;;;4993037;28;20510;-70
2022/01/01 03:51:01;;;;;;;10.02;5.70;;;11.10;99.90;;;;;;4993238;28;20100;-71
2022/01/01 03:53:28;;;;;;;12.80;6.90;;;11.10;99.90;;;;;;4993440;28;20477;-71
2022/01/01 03:55:56;;;;;;;16.15;6.65;;;11.10;99.90;;;;;;4993461;28;20065;-73
2022/01/01 03:58:23;;;;;;;11.88;6.30;;;11.10;99.90;;;;;;4993268;28;20092;-71
2022/01/01 04:00:50;;;;;;;12.23;5.70;;;11.10;99.90;;;;;;4993440;28;20046;-73
2022/01/01 04:03:17;;;;;;;10.45;5.40;;;11.10;99.90;;;;;;4993370;28;20133;-72
2022/01/01 04:05:46;;;;;;;10.23;5.22;;;11.10;99.90;;;;;;4993011;28;20046;-69
2022/01/01 04:08:14;;;;;;;9.95;5.88;;;11.10;99.90;;;;;;4993895;28;20124;-70
2022/01/01 04:10:42;;;;;;;12.68;5.53;;;11.10;99.90;;;;;;4993530;28;20137;-73
2022/01/01 04:13:10;;;;;;;13.02;6.40;;;11.10;99.90;;;;;;4993141;28;20137;-73
2022/01/01 04:15:39;;;;;;;12.85;5.70;;;11.10;99.90;;;;;;4992908;28;20066;-71
2022/01/01 04:18:10;;;;;;;10.93;6.20;;;11.00;99.90;;;;;;4992762;28;20058;-70
2022/01/01 04:20:38;;;;;;;10.32;5.40;;;11.10;99.90;;;;;;4992644;28;20085;-71
2022/01/01 04:23:11;;;;;;;11.43;5.68;;;11.10;99.90;;;;;;4992827;28;20100;-71
2022/01/01 04:25:39;;;;;;;9.93;5.72;;;11.00;99.90;;;;;;4992612;28;20154;-71
2022/01/01 04:28:06;;;;;;;11.48;5.68;;;11.10;99.90;;;;;;4992793;28;20093;-70
2022/01/01 04:30:34;;;;;;;10.77;5.78;;;11.10;99.90;;;;;;4992470;28;20141;-70
2022/01/01 04:33:01;;;;;;;10.52;5.53;;;11.10;99.90;;;;;;4992524;28;20062;-72
2022/01/01 04:35:30;;;;;;;11.10;6.25;;;11.00;99.90;;;;;;4992484;28;20573;-72
2022/01/01 04:37:57;;;;;;;11.35;5.70;;;11.00;99.90;;;;;;4992395;28;20133;-71
2022/01/01 04:40:26;;;;;;;12.52;5.18;;;11.00;99.90;;;;;;4992400;28;20138;-69
2022/01/01 04:42:53;;;;;;;10.48;5.22;;;11.00;99.90;;;;;;4992265;28;20082;-69
2022/01/01 04:45:20;;;;;;;15.60;6.07;;;11.00;99.90;;;;;;4992333;28;20085;-69
2022/01/01 04:47:47;;;;;;;11.27;6.05;;;11.00;99.90;;;;;;4992186;28;20503;-69
2022/01/01 04:50:14;;;;;;;9.95;5.30;;;10.90;99.90;;;;;;4992002;28;20065;-69
2022/01/01 04:52:43;;;;;;;9.30;5.50;;;11.00;99.90;;;;;;4991959;28;20509;-69
2022/01/01 04:55:10;;;;;;;9.93;5.53;;;11.00;99.90;;;;;;4992215;28;20066;-69
2022/01/01 04:57:39;;;;;;;10.95;5.53;;;11.00;99.90;;;;;;4992214;28;20129;-71
2022/01/01 05:00:07;;;;;;;9.95;5.43;;;11.00;99.90;;;;;;4992361;28;20081;-69
2022/01/01 05:02:34;;;;;;;9.90;4.50;;;11.00;99.90;;;;;;4991669;28;20141;-69
2022/01/01 05:05:01;;;;;;;10.80;5.30;;;11.00;99.90;;;;;;4992751;28;20092;-69
2022/01/01 05:07:28;;;;;;;12.43;5.60;;;10.90;99.90;;;;;;4992134;28;20050;-69
2022/01/01 05:09:55;;;;;;;10.35;6.00;;;10.90;99.90;;;;;;4992053;28;20082;-69
2022/01/01 05:12:23;;;;;;;10.18;6.10;;;10.90;99.90;;;;;;4992118;28;20055;-69
2022/01/01 05:14:54;;;;;;;10.77;6.00;;;10.80;99.90;;;;;;4991797;28;20051;-69
2022/01/01 05:17:22;;;;;;;8.90;5.65;;;10.80;99.90;;;;;;4991737;28;20233;-69
2022/01/01 05:19:50;;;;;;;11.68;5.90;;;10.70;99.90;;;;;;4991967;28;20503;-69
2022/01/01 05:22:18;;;;;;;10.65;6.05;;;10.80;99.90;;;;;;4991678;28;20586;-69
2022/01/01 05:24:45;;;;;;;9.82;5.32;;;10.70;99.90;;;;;;4991930;28;20498;-69
2022/01/01 05:27:14;;;;;;;10.98;5.28;;;10.60;99.90;;;;;;4991962;28;20165;-69
2022/01/01 05:29:41;;;;;;;10.60;5.95;;;10.60;99.90;;;;;;4991661;28;20050;-69
2022/01/01 05:32:14;;;;;;;14.75;6.60;;;10.50;99.90;;;;;;4991971;28;20050;-69
2022/01/01 05:34:42;;;;;;;12.10;6.25;;;10.50;99.90;;;;;;4991770;28;20055;-69
2022/01/01 05:37:09;;;;;;;13.25;5.82;;;10.60;99.90;;;;;;4991778;28;20321;-69
2022/01/01 05:39:35;;;;;;;12.05;6.35;;;10.50;99.90;;;;;;4992142;28;20134;-69
2022/01/01 05:42:06;;;;;;;10.32;6.03;;;10.50;99.90;;;;;;4991546;28;20467;-69
2022/01/01 05:44:33;;;;;;;12.40;6.50;;;10.50;99.90;;;;;;4994329;28;20057;-69
2022/01/01 05:47:00;;;;;;;12.55;6.13;;;10.50;99.90;;;;;;4995416;28;20130;-69
2022/01/01 05:49:28;;;;;;;14.10;6.40;;;10.60;99.90;;;;;;4995807;28;20055;-69
2022/01/01 05:51:55;;;;;;;13.63;6.78;;;10.60;99.90;;;;;;4995937;28;20073;-69
2022/01/01 05:54:22;;;;;;;11.40;7.10;;;10.60;99.90;;;;;;4995524;28;20518;-69
2022/01/01 05:56:49;;;;;;;12.55;6.22;;;10.40;99.90;;;;;;4995227;28;20529;-69
2022/01/01 05:59:16;;;;;;;10.98;5.90;;;10.50;99.90;;;;;;4995211;28;20137;-69
2022/01/01 06:01:43;;;;;;;13.70;6.30;;;10.50;99.90;;;;;;4995586;28;20060;-69
2022/01/01 06:04:10;;;;;;;12.45;6.55;;;10.50;99.90;;;;;;4995517;28;20141;-69
2022/01/01 06:06:38;;;;;;;13.35;6.47;;;10.50;99.90;;;;;;4994922;28;20476;-69
2022/01/01 06:09:05;;;;;;;16.77;6.55;;;10.40;99.90;;;;;;4995215;28;20133;-69
2022/01/01 06:11:32;;;;;;;16.42;5.65;;;10.60;99.90;;;;;;4995119;28;20078;-69
2022/01/01 06:13:59;;;;;;;12.57;6.43;;;10.50;99.90;;;;;;4994880;28;20133;-69
2022/01/01 06:16:26;;;;;;;13.63;5.57;;;10.80;99.90;;;;;;4995116;28;20089;-69
2022/01/01 06:18:53;;;;;;;10.52;5.72;;;10.80;99.90;;;;;;4994886;28;20137;-69
2022/01/01 06:21:20;;;;;;;11.35;6.32;;;10.70;99.90;;;;;;4994989;28;20222;-69
2022/01/01 06:23:48;;;;;;;11.20;6.20;;;10.60;99.90;;;;;;4994731;28;20092;-69
2022/01/01 06:26:16;;;;;;;14.75;6.53;;;10.50;99.90;;;;;;4995044;28;20085;-69
2022/01/01 06:28:43;;;;;;;9.73;5.78;;;10.60;99.90;;;;;;4994888;28;20522;-69
2022/01/01 06:31:10;;;;;;;12.38;5.80;;;10.50;99.90;;;;;;4994781;28;20141;-69
2022/01/01 06:33:37;;;;;;;11.23;5.90;;;10.60;99.90;;;;;;4994560;28;20133;-69
2022/01/01 06:36:04;;;;;;;12.27;6.22;;;10.60;99.90;;;;;;4994719;28;20132;-69
2022/01/01 06:38:31;;;;;;;13.23;7.22;;;10.60;99.90;;;;;;4994594;28;20046;-69
2022/01/01 06:40:59;;;;;;;11.10;6.00;;;10.60;99.90;;;;;;4994557;28;20050;-69
2022/01/01 06:43:26;;;;;;;11.82;6.50;;;10.60;99.90;;;;;;4994760;28;20487;-69
2022/01/01 06:45:53;;;;;;;12.43;6.22;;;10.50;99.90;;;;;;4994575;28;20133;-69
2022/01/01 06:48:20;;;;;;;13.32;6.72;;;10.60;99.90;;;;;;4994465;28;20086;-69
2022/01/01 06:50:46;;;;;;;10.27;6.00;;;10.50;99.90;;;;;;4994700;28;20138;-69
2022/01/01 06:53:14;;;;;;;12.77;6.07;;;10.60;99.90;;;;;;4994510;28;20050;-69
2022/01/01 06:55:41;;;;;;;11.57;6.35;;;10.50;99.90;;;;;;4993290;28;20382;-69
2022/01/01 06:58:10;;;;;;;14.63;7.32;;;10.60;99.90;;;;;;4994388;28;20096;-69
2022/01/01 07:00:38;;;;;;;13.95;7.22;;;10.60;99.90;;;;;;4994039;28;20507;-69
2022/01/01 07:03:05;;;;;;;12.38;6.47;;;10.60;99.90;;;;;;4994341;28;20054;-69
2022/01/01 07:05:32;;;;;;;13.73;7.15;;;10.60;99.90;;;;;;4994063;28;20489;-69
2022/01/01 07:08:00;;;;;;;11.95;6.10;;;10.60;99.90;;;;;;4994427;28;20046;-69
2022/01/01 07:10:27;;;;;;;14.98;6.88;;;10.60;99.90;;;;;;4994005;28;20057;-69
2022/01/01 07:12:54;;;;;;;13.70;7.18;;;10.60;99.90;;;;;;4994315;28;20487;-70
2022/01/01 07:15:22;;;;;;;12.60;6.72;;;10.60;99.90;;;;;;4993755;28;20125;-70
2022/01/01 07:17:49;;;;;;;12.73;6.90;;;10.60;99.90;;;;;;4993813;28;20132;-71
2022/01/01 07:20:16;;;;;;;11.50;6.47;;;10.60;99.90;;;;;;4994038;28;20458;-70
2022/01/01 07:22:44;;;;;;;13.02;6.63;;;10.60;99.90;;;;;;4994167;28;20163;-70
2022/01/01 07:25:12;;;;;;;14.15;6.72;;;10.60;99.90;;;;;;4993916;28;20133;-69
2022/01/01 07:27:39;;;;;;;14.30;6.68;;;10.50;99.90;;;;;;4993905;28;20138;-69
2022/01/01 07:30:08;;;;;;;12.35;6.35;;;10.50;99.90;;;;;;4993827;28;20046;-69
2022/01/01 07:32:41;;;;;;;13.82;6.63;;;10.60;99.90;;;;;;4993749;28;20129;-69
2022/01/01 07:35:09;;;;;;;11.20;6.30;;;10.50;99.90;;;;;;4993517;28;20558;-69
2022/01/01 07:37:36;;;;;;;11.45;6.13;;;10.50;99.90;;;;;;4993729;28;20086;-69
2022/01/01 07:40:04;;;;;;;11.38;6.38;;;10.50;99.90;;;;;;4993552;28;20058;-69
2022/01/01 07:42:31;;;;;;;11.13;6.13;;;10.50;99.90;;;;;;4993509;28;20141;-69
2022/01/01 07:44:59;;;;;;;14.45;6.13;;;10.50;99.90;;;;;;4993283;28;20399;-69
2022/01/01 07:47:26;;;;;;;14.95;6.57;;;10.50;99.90;;;;;;4993534;28;20053;-69
2022/01/01 07:49:55;;;;;;;13.73;6.45;;;10.40;99.90;;;;;;4993680;28;20149;-69
2022/01/01 07:52:22;;;;;;;12.43;6.80;;;10.50;99.90;;;;;;4993551;28;20145;-69
2022/01/01 07:54:49;;;;;;;15.25;7.07;;;10.50;99.90;;;;;;4993382;28;20569;-69
2022/01/01 07:57:16;;;;;;;12.80;6.97;;;10.50;99.90;;;;;;4993382;28;20129;-69
2022/01/01 07:59:43;;;;;;;14.82;6.95;;;10.50;99.90;;;;;;4993381;28;20569;-69
2022/01/01 08:02:10;;;;;;;13.73;7.15;;;10.50;99.90;;;;;;4993280;28;20096;-69
2022/01/01 08:04:38;;;;;;;14.15;7.75;;;10.50;99.90;;;;;;4993277;28;20477;-69
2022/01/01 08:07:06;;;;;;;14.02;7.45;;;10.50;99.90;;;;;;4992768;28;20054;-69
2022/01/01 08:09:33;;;;;;;18.13;8.65;;;10.50;99.90;;;;;;4993335;28;20152;-69
2022/01/01 08:12:00;;;;;;;15.55;8.15;;;10.60;99.90;;;;;;4992794;28;20133;-69
2022/01/01 08:14:27;;;;;;;14.95;7.82;;;10.60;99.90;;;;;;4993330;28;20387;-69
2022/01/01 08:16:58;;;;;;;16.65;8.00;;;10.60;99.90;;;;;;4993411;28;20058;-71
2022/01/01 08:19:25;;;;;;;15.95;8.23;;;10.60;99.90;;;;;;4993164;28;20486;-71
2022/01/01 08:21:52;;;;;;;15.52;7.45;;;10.60;99.90;;;;;;4992858;28;20494;-71
2022/01/01 08:24:20;;;;;;;15.27;8.18;;;10.60;99.90;;;;;;4993381;28;20129;-71
2022/01/01 08:26:47;;;;;;;18.85;8.65;;;10.60;99.90;;;;;;4993006;28;20050;-69
2022/01/01 08:29:14;;;;;;;16.08;7.80;;;10.60;99.90;;;;;;4993014;28;20141;-69
2022/01/01 08:31:41;;;;;;;17.38;8.75;;;10.60;99.90;;;;;;4992769;28;20050;-69
2022/01/01 08:34:09;;;;;;;18.10;8.68;;;10.60;99.90;;;;;;4992795;28;20133;-69
2022/01/01 08:36:36;;;;;;;14.35;7.18;;;10.70;99.90;;;;;;4992573;28;20145;-69
2022/01/01 08:39:05;;;;;;;13.27;7.53;;;10.70;99.90;;;;;;4992850;28;20094;-69
2022/01/01 08:41:36;;;;;;;13.38;6.93;;;10.70;99.90;;;;;;4992074;28;20081;-69
2022/01/01 08:44:03;;;;;;;15.00;8.75;;;10.80;99.90;;;;;;4992519;28;20057;-69
2022/01/01 08:46:37;;;;;;;14.45;7.72;;;10.70;99.90;;;;;;4992041;28;20126;-69
2022/01/01 08:49:10;;;;;;;13.00;6.72;;;10.80;99.90;;;;;;4991278;28;20046;-69
2022/01/01 08:51:42;;;;;;;15.95;8.18;;;10.80;99.90;;;;;;4992233;28;20054;-69
2022/01/01 08:54:11;;;;;;;15.55;7.47;;;10.80;99.90;;;;;;4992486;28;20054;-69
2022/01/01 08:56:41;;;;;;;12.80;6.95;;;10.80;99.90;;;;;;4991807;28;20056;-69
2022/01/01 08:59:26;;;;;;;13.23;7.32;;;10.90;99.90;;;;;;4974687;28;20129;-69
2022/01/01 09:01:55;;;;;;;15.07;7.47;;;10.90;99.90;;;;;;4974607;28;20065;-69
2022/01/01 09:07:04;;;;;;;14.25;7.03;;;11.00;99.90;;;;;;4986415;28;20425;-69
2022/01/01 09:09:31;;;;;;;16.27;7.65;;;11.00;99.90;;;;;;4991946;28;20494;-69
2022/01/01 09:15:40;;;;;;;15.65;8.15;;;11.00;99.90;;;;;;4973259;28;20101;-69
2022/01/01 09:18:50;;;;;;;13.10;7.05;;;11.00;99.90;;;;;;4991070;28;20050;-69
2022/01/01 09:24:51;;;;;;;14.40;7.07;;;11.10;99.90;;;;;;4991983;28;20387;-69
2022/01/01 09:27:27;;;;;;;14.65;6.82;;;11.10;99.90;;;;;;4991697;28;20061;-69
2022/01/01 09:29:54;;;;;;;16.38;6.40;;;11.10;99.90;;;;;;4996649;23;20074;-67
2022/01/01 09:32:21;;;;;;;12.68;7.00;;;11.20;99.90;;;;;;4953947;28;20083;-67
2022/01/01 09:34:48;;;;;;;12.63;6.70;;;11.20;99.90;;;;;;4953460;29;20055;-67
2022/01/01 09:37:15;;;;;;;13.48;7.10;;;11.20;99.90;;;;;;4953459;29;20150;-67
2022/01/01 09:39:42;;;;;;;14.10;7.40;;;11.30;99.90;;;;;;4953827;29;20454;-67
2022/01/01 09:42:12;;;;;;;13.73;6.47;;;11.30;99.90;;;;;;4953688;28;20142;-67
2022/01/01 09:44:41;;;;;;;13.40;6.68;;;11.30;99.90;;;;;;4954162;29;20055;-69
2022/01/01 09:47:09;;;;;;;12.65;6.75;;;11.30;99.90;;;;;;4953606;29;20058;-67
2022/01/01 09:49:36;;;;;;;12.43;6.53;;;11.30;99.90;;;;;;4954979;29;20407;-67
2022/01/01 09:52:03;;;;;;;15.27;6.30;;;11.30;99.90;;;;;;4953879;28;20134;-67
2022/01/01 09:54:31;;;;;;;16.95;6.78;;;11.30;99.90;;;;;;4953760;29;20051;-67
2022/01/01 09:56:58;;;;;;;13.02;6.07;;;11.40;99.90;;;;;;4953469;29;20078;-67
2022/01/01 09:59:25;;;;;;;14.23;7.45;;;11.40;99.90;;;;;;4946121;29;20566;-67
2022/01/01 10:01:53;;;;;;;12.90;6.80;;;11.40;99.90;;;;;;4953363;28;20055;-67
2022/01/01 10:04:20;;;;;;;13.40;7.13;;;11.50;99.90;;;;;;4952831;29;20144;-67
2022/01/01 10:07:02;;;;;;;13.38;5.90;;;11.50;99.90;;;;;;4952957;29;20138;-67
2022/01/01 10:09:33;;;;;;;11.75;6.30;;;11.50;99.90;;;;;;4953183;29;20048;-67
2022/01/01 10:12:01;;;;;;;11.70;6.70;;;11.60;99.90;;;;;;4953079;28;20496;-67
2022/01/01 10:14:36;;;;;;;14.45;6.43;;;11.60;99.90;;;;;;4953326;29;20138;-67
2022/01/01 10:17:14;;;;;;;12.80;5.65;;;11.60;99.90;;;;;;4953324;29;20076;-68
2022/01/01 10:19:41;;;;;;;9.30;5.22;;;11.60;99.90;;;;;;4953198;29;20149;-67
2022/01/01 10:22:12;;;;;;;11.38;5.57;;;11.70;99.90;;;;;;4953089;28;20134;-67
2022/01/01 10:27:46;;;;;;;12.52;5.63;;;11.60;99.90;;;;;;4953238;29;20471;-67
2022/01/01 10:30:21;;;;;;;13.00;6.00;;;11.70;99.90;;;;;;4955152;28;20055;-67
2022/01/01 10:33:06;;;;;;;11.52;5.55;;;11.70;99.90;;;;;;4956160;28;20086;-67
2022/01/01 10:35:40;;;;;;;11.18;5.70;;;11.70;99.90;;;;;;4956429;29;20158;-67
2022/01/01 10:38:15;;;;;;;11.27;6.38;;;11.90;99.90;;;;;;4956517;29;20134;-67
2022/01/01 10:40:43;;;;;;;11.20;5.57;;;11.90;99.90;;;;;;4956364;29;20130;-67
2022/01/01 10:43:11;;;;;;;13.40;5.95;;;12.00;99.90;;;;;;4955931;28;20130;-67
2022/01/01 10:45:40;;;;;;;13.80;5.63;;;12.00;99.90;;;;;;4956071;29;20059;-67
2022/01/01 10:48:17;;;;;;;10.90;5.80;;;12.00;99.90;;;;;;4956033;29;20054;-67
2022/01/01 10:50:45;;;;;;;13.95;5.43;;;12.00;99.90;;;;;;4955811;29;20146;-67
2022/01/01 10:53:14;;;;;;;11.38;5.90;;;12.00;99.90;;;;;;4956017;28;20138;-67
2022/01/01 10:55:46;;;;;;;13.40;5.32;;;12.10;99.90;;;;;;4956123;29;20134;-67
2022/01/01 10:58:18;;;;;;;12.85;5.15;;;12.10;99.90;;;;;;4955807;29;20134;-68
2022/01/01 11:00:46;;;;;;;11.45;5.47;;;12.20;99.90;;;;;;4955853;29;20443;-67
2022/01/01 11:03:18;;;;;;;10.15;5.47;;;12.20;99.90;;;;;;4955577;28;20136;-67
2022/01/01 11:05:47;;;;;;;9.73;4.72;;;12.10;99.90;;;;;;4955711;29;20139;-67
2022/01/01 11:08:14;;;;;;;12.73;5.60;;;12.10;99.90;;;;;;4956222;29;20057;-67
2022/01/01 11:10:43;;;;;;;9.15;5.07;;;12.10;99.90;;;;;;4955699;29;20142;-67
2022/01/01 11:13:11;;;;;;;17.50;6.00;;;12.20;99.90;;;;;;4955925;28;20502;-67
2022/01/01 11:15:38;;;;;;;10.88;5.15;;;12.30;99.90;;;;;;4955634;29;20146;-67
2022/01/01 11:18:06;;;;;;;10.07;5.00;;;12.20;99.90;;;;;;4955749;29;20073;-67
2022/01/01 11:20:36;;;;;;;8.68;4.05;;;12.20;99.90;;;;;;4955611;29;20130;-67
2022/01/01 11:23:14;;;;;;;13.30;4.82;;;12.20;99.90;;;;;;4955570;28;20137;-67
2022/01/01 11:25:42;;;;;;;10.68;4.57;;;12.20;99.90;;;;;;4955063;29;20091;-67
2022/01/01 11:28:12;;;;;;;12.65;5.70;;;12.20;99.90;;;;;;4955306;29;20442;-67
2022/01/01 11:30:45;;;;;;;12.40;5.95;;;12.20;99.90;;;;;;4955315;29;20055;-67
2022/01/01 11:33:15;;;;;;;10.23;5.40;;;12.20;99.90;;;;;;4955443;28;20102;-67
2022/01/01 11:35:45;;;;;;;11.48;4.85;;;12.20;99.90;;;;;;4955164;29;20063;-67
2022/01/01 11:38:15;;;;;;;9.48;4.28;;;12.30;99.90;;;;;;4955171;29;20567;-67
2022/01/01 11:40:54;;;;;;;9.00;4.95;;;12.40;99.90;;;;;;4953898;28;20051;-67
2022/01/01 11:43:39;;;;;;;10.10;5.00;;;12.40;99.90;;;;;;4946890;29;20055;-67
2022/01/01 11:46:12;;;;;;;11.48;4.68;;;12.50;99.90;;;;;;4955188;29;20487;-67
2022/01/01 11:48:51;;;;;;;12.43;5.47;;;12.60;99.90;;;;;;4956314;29;20139;-67
2022/01/01 11:51:33;;;;;;;12.55;5.03;;;12.70;99.90;;;;;;4954775;29;20092;-67
2022/01/01 11:54:19;;;;;;;10.15;4.57;;;12.90;99.90;;;;;;4954807;29;20061;-67
2022/01/01 11:57:11;;;;;;;11.90;4.85;;;12.80;99.90;;;;;;4954644;29;20051;-69
2022/01/01 11:59:50;;;;;;;12.25;4.85;;;12.60;99.90;;;;;;4937551;29;20051;-67
2022/01/01 12:02:49;;;;;;;9.43;4.45;;;12.70;99.90;;;;;;4954497;29;20126;-67
2022/01/01 12:05:22;;;;;;;12.40;5.05;;;12.80;99.90;;;;;;4954559;29;20059;-67
2022/01/01 12:07:55;;;;;;;8.80;4.43;;;12.70;99.90;;;;;;4954867;29;20062;-67
2022/01/01 12:10:33;;;;;;;12.18;4.60;;;12.70;99.90;;;;;;4954608;29;20146;-67
2022/01/01 12:13:02;;;;;;;11.23;4.78;;;12.60;99.90;;;;;;4954534;29;20086;-67
2022/01/01 12:15:33;;;;;;;10.57;4.85;;;12.70;99.90;;;;;;4954403;29;20098;-67
2022/01/01 12:18:05;;;;;;;12.25;4.28;;;12.70;99.90;;;;;;4954757;29;20055;-67
2022/01/01 12:20:34;;;;;;;9.57;4.28;;;12.70;99.90;;;;;;4954420;29;20063;-67
2022/01/01 12:23:06;;;;;;;9.27;4.10;;;12.70;99.90;;;;;;4954288;29;20142;-67
2022/01/01 12:25:34;;;;;;;9.65;4.70;;;12.90;99.90;;;;;;4954535;29;20567;-67
2022/01/01 12:28:08;;;;;;;10.18;3.95;;;13.00;99.90;;;;;;4953806;29;20051;-67
2022/01/01 12:30:41;;;;;;;8.38;4.18;;;13.00;99.90;;;;;;4954098;29;20087;-67
2022/01/01 12:33:10;;;;;;;9.77;4.10;;;13.10;99.90;;;;;;4954060;29;20094;-68
2022/01/01 12:35:44;;;;;;;13.30;4.13;;;12.90;99.90;;;;;;4954534;29;20492;-67
2022/01/01 12:38:14;;;;;;;7.93;4.20;;;13.10;99.90;;;;;;4953866;29;20134;-67
2022/01/01 12:41:05;;;;;;;16.15;4.53;;;13.10;99.90;;;;;;4953982;29;20424;-67
2022/01/01 12:43:44;;;;;;;7.22;3.40;;;13.10;99.90;;;;;;4953953;29;20132;-67
2022/01/01 12:46:13;;;;;;;8.98;3.60;;;13.10;99.90;;;;;;4953654;29;20177;-67
2022/01/01 12:48:41;;;;;;;10.68;4.78;;;13.00;99.90;;;;;;4953797;29;20059;-69
2022/01/01 12:51:10;;;;;;;13.13;3.80;;;13.00;99.90;;;;;;4953443;29;20047;-68
2022/01/01 12:53:41;;;;;;;8.38;3.28;;;12.90;99.90;;;;;;4953084;28;20110;-68
2022/01/01 12:56:10;;;;;;;10.57;3.80;;;13.00;99.90;;;;;;4954132;29;20060;-68
2022/01/01 12:58:42;;;;;;;12.43;3.95;;;12.80;99.90;;;;;;4953636;29;20055;-68
2022/01/01 13:01:15;;;;;;;8.70;3.42;;;12.80;99.90;;;;;;4953685;29;20134;-68
2022/01/01 13:03:44;;;;;;;11.63;4.03;;;12.70;99.90;;;;;;4953367;29;20500;-68